x

West Santa Barbara 38 Nm West Of Santa Barbara, Ca (46054) Wave Buoy

3:50 - Tue 7th Jul 2015 All times are PDT. -7 hours from GMT.

  • Sig Wave height 3.6ft
  • Swell Direction
  • Peak Period 14s
  • Average Period 5s
  • Wind
    18mph, 22mph gusts
  • Sea Temp 59°f
  • Air Temp 61°f
  • Sea Pressure 1014.6mb
  • West Santa Barbara  38 Nm West Of Santa Barbara, Ca
  • West Santa Barbara  38 Nm West Of Santa Barbara, Ca

More Historic Weather Station data

Upgrade to MSW Pro to gain access to the past 30 days of data for over 8000 Wavebouys and Weather Stations around the globe.

Join Pro

Comparision Forecast

View Surf forecast
   
mar. 07/07 3:50 3.5ft 14s 5s 18 22 mph 1014.6mb 59f 61f
2:50 4ft 5s 5s 18 22 mph 1014.7mb 59f 61f
1:50 3.5ft 14s 5s 18 20 mph 1015.2mb 59f 61f
12:50 3.5ft 14s 5s 18 22 mph 1015.2mb 59f 61f
lun. 07/06 11:50 3.5ft 14s 5s 16 18 mph 1015.4mb 59f 60f
10:50 3.5ft 14s 5s 18 20 mph 1015.4mb 59f 60f
9:50 3.5ft 12s 5s 18 20 mph 1015mb 59f 60f
8:50 3.5ft 14s 5s 20 22 mph 1014.4mb 60f 60f
7:50 3.5ft 14s 5s 18 22 mph 1014.4mb 60f 60f
6:50 3.5ft 14s 5s 18 22 mph 1014.5mb 60f 61f
5:50 3.5ft 11s 5s 20 25 mph 1014.6mb 60f 61f
4:50 3.5ft 13s 5s 22 25 mph 1014.9mb 60f 61f
3:50 3ft 15s 5s 20 25 mph 1015.7mb 60f 61f
2:50 2.5ft 14s 6s 18 22 mph 1016.3mb 60f 61f
1:50 2.5ft 14s 6s 16 18 mph 1016.8mb 60f 61f
12:50 2.5ft 15s 6s 16 18 mph 1017.3mb 60f 60f
11:50 2.5ft 15s 6s 16 18 mph 1017.8mb 60f 60f
10:50 3ft 15s 6s 16 20 mph 1017.5mb 60f 60f
9:50 2.5ft 14s 6s 11 16 mph 1017.7mb 60f 60f
8:50 2.5ft 15s 7s 11 13 mph 1017.6mb 60f 60f
7:50 2.5ft 15s 7s 11
mph
1017.4mb 60f 59f
6:50 2.5ft 14s 5s 13 16 mph 1016.8mb 60f 60f
5:50 2.5ft 15s 6s 16 18 mph 1016.4mb 61f 61f
4:50 2.5ft 15s 6s 13 18 mph 1016.2mb 61f 61f
3:50 2.5ft 13s 6s 13 16 mph 1016mb 61f 61f
2:50 2.5ft 13s 6s 13 16 mph 1015.9mb 61f 61f
1:50 3ft 15s 6s 13 16 mph 1016mb 60f 61f
12:50 3ft 15s 5s 13 18 mph 1015.9mb 60f 60f
dim. 07/05 11:50 3.5ft 15s 5s 16 20 mph 1015.8mb 61f 60f
10:50 3ft 15s 5s 18 20 mph 1015.6mb 61f 60f
9:50 3ft 13s 5s 18 20 mph 1015.2mb 61f 60f
8:50 3ft 15s 5s 18 20 mph 1014.4mb 61f 61f
7:50 3ft 14s 5s 16 18 mph 1014.1mb 61f 61f
6:50 2.5ft 14s 5s 18 22 mph 1013.6mb 61f 62f
5:50 2.5ft 15s 7s 13 18 mph 1013.7mb 61f 61f
4:50 2.5ft 15s 7s 11 13 mph 1014.1mb 61f 61f
3:50 2.5ft 14s 7s 11 13 mph 1014.5mb 61f 61f
2:50 2.5ft 15s 7s 11 13 mph 1014.8mb 61f 61f
1:50 2.5ft 15s 8s 9 11 mph 1015.4mb 61f 61f
12:50 2.5ft 15s 8s 9 11 mph 1015.6mb 61f 60f
11:50 2.5ft 13s 8s 9
mph
1015.8mb 60f 60f
10:50 2.5ft 14s 7s 11
mph
1015.6mb 60f 60f
9:50 2.5ft 14s 7s 7 9 mph 1015.5mb 60f 60f
8:50 2.5ft 14s 8s 7
mph
1015.5mb 60f 60f
7:50 2.5ft 14s 7s 4 7 mph 1015.2mb 60f 59f
6:50 2.5ft 14s 7s 7 9 mph 1014.9mb 60f 60f
5:50 2.5ft 14s 6s 7 9 mph 1014.1mb 60f 60f
4:50 2.5ft 16s 7s 9 11 mph 1013.4mb 60f 60f
3:50 2.5ft 16s 7s 9
mph
1013mb 60f 60f
2:50 3ft 16s 6s 9 11 mph 1013mb 60f 60f
1:50 2.5ft 15s 6s 11
mph
1012.9mb 60f 60f
12:50 3ft 15s 6s 11 13 mph 1013mb 60f 60f
sam. 07/04 11:50 3ft 15s 5s 13 16 mph 1012.6mb 60f 60f
10:50 3.5ft 9s 5s 13 16 mph 1012.7mb 60f 60f
9:50 3ft 15s 5s 16 20 mph 1011.9mb 60f 60f
8:50 3ft 14s 5s 16 20 mph 1011.7mb 60f 61f
7:50 3ft 16s 6s 18 20 mph 1011.4mb 61f 61f
6:50 3.5ft 9s 6s 13 16 mph 1011.2mb 61f 61f
5:50 3ft 10s 6s 16 18 mph 1011.1mb 61f 61f
4:50 3ft 16s 6s 13 16 mph 1011.6mb 61f 61f
3:50 2.5ft 16s 6s 11 13 mph 1012.1mb 61f 61f
2:50 3ft 15s 6s 11 13 mph 1012.3mb 61f 60f
1:50 2.5ft 15s 6s 11
mph
1012.7mb 61f 60f
12:50 2.5ft 16s 6s 9 11 mph 1012.8mb 61f 60f
11:50 2.5ft 15s 6s 9
mph
1012.8mb 60f 59f
10:50 2.5ft 15s 6s 11
mph
1012.5mb 60f 58f
9:50 2.5ft 16s 6s 11 13 mph 1012.3mb 60f 58f
8:50 2.5ft 15s 6s 9 11 mph 1012.2mb 60f 58f
7:50 2.5ft 15s 6s 16 18 mph 1011.6mb 60f 58f
6:50 2.5ft 15s 5s 16 18 mph 1011.5mb 59f 58f
5:50 3ft 15s 5s 16 18 mph 1011.3mb 59f 57f
4:50 3.5ft 15s 5s 16 18 mph 1011.2mb 59f 58f
3:50 3ft 14s 5s 18 22 mph 1010.8mb 59f 58f
2:50 3.5ft 4s 5s 16 20 mph 1011mb 59f 58f
1:50 3.5ft 15s 5s 18 20 mph 1011mb 59f 58f
12:50 3.5ft 4s 5s 20 25 mph 1011.1mb 59f 58f
ven. 07/03 11:50 3.5ft 14s 5s 20 22 mph 1011.2mb 58f 59f
10:50 4ft 14s 5s 20 22 mph 1011.5mb 59f 59f
9:50 3.5ft 16s 5s 22 25 mph 1011.1mb 59f 59f
8:50 3.5ft 14s 5s 20 25 mph 1010.8mb 59f 59f
7:50 3.5ft 16s 5s 20 25 mph 1010.9mb 60f 59f
6:50 3.5ft 13s 5s 20 22 mph 1011mb 60f 59f
5:50 3.5ft 14s 5s 18 22 mph 1011.5mb 60f 59f
4:50 3.5ft 16s 5s 16 20 mph 1012.3mb 61f 60f
3:50 3.5ft 14s 6s 16 20 mph 1012.7mb 61f 60f
2:50 3.5ft 13s 6s 9 11 mph 1013.4mb 61f 60f
1:50 3.5ft 8s 6s 9 11 mph 1014mb 60f 60f
12:50 3.5ft 13s 6s 11 13 mph 1014.3mb 60f 59f